Time;durP1;ratioP1;P1;durP2;ratioP2;P2;SDS_P1;SDS_P2;PMS_P1;PMS_P2;Temp;Humidity;BMP_temperature;BMP_pressure;BME280_temperature;BME280_humidity;BME280_pressure;Samples;Min_cycle;Max_cycle;Signal;HPM_P1;HPM_P2
2022/04/24 00:00:12;;;;;;;;;;;;;;;15.03;63.35;99035.81;4199161;34;20088;-76
2022/04/24 00:02:40;;;;;;;;;;;;;;;15.15;62.75;99029.53;4233333;33;19982;-78
2022/04/24 00:05:08;;;;;;;;;;;;;;;15.06;63.06;99025.34;4238169;33;19994;-77
2022/04/24 00:07:35;;;;;;;;;;;;;;;15.08;62.99;99034.00;4239949;33;20069;-73
2022/04/24 00:10:02;;;;;;;;;;;;;;;15.18;62.68;99032.09;4237606;33;19977;-77
2022/04/24 00:12:29;;;;;;;;;;;;;;;15.15;62.56;99032.16;4237664;33;20893;-79
2022/04/24 00:14:58;;;;;;;;;;;;;;;15.13;62.57;99026.13;4239114;33;20509;-78
2022/04/24 00:17:26;;;;;;;;;;;;;;;15.07;62.77;99028.81;4243901;33;19985;-78
2022/04/24 00:19:52;;;;;;;;;;;;;;;14.97;63.03;99029.84;4237525;33;19998;-73
2022/04/24 00:22:20;;;;;;;;;;;;;;;15.03;62.80;99020.19;4239032;33;20030;-79
2022/04/24 00:24:47;;;;;;;;;;;;;;;15.17;62.23;99019.09;4243735;33;19997;-76
2022/04/24 00:27:14;;;;;;;;;;;;;;;15.14;62.39;99012.19;4237580;33;19997;-76
2022/04/24 00:29:42;;;;;;;;;;;;;;;15.09;62.33;98998.34;4238673;33;19985;-79
2022/04/24 00:32:10;;;;;;;;;;;;;;;15.16;62.13;98992.19;4243892;33;19986;-74
2022/04/24 00:34:36;;;;;;;;;;;;;;;15.19;61.89;98983.41;4236363;33;19986;-74
2022/04/24 00:37:04;;;;;;;;;;;;;;;15.05;62.24;98984.50;4237558;33;20458;-77
2022/04/24 00:39:31;;;;;;;;;;;;;;;14.96;62.71;98996.81;4237362;33;20372;-76
2022/04/24 00:41:59;;;;;;;;;;;;;;;14.95;62.53;98997.72;4237341;33;19978;-78
2022/04/24 00:44:29;;;;;;;;;;;;;;;15.01;62.12;98990.66;4228960;33;20663;-79
2022/04/24 00:46:57;;;;;;;;;;;;;;;15.02;61.97;98992.38;4237180;33;20004;-75
2022/04/24 00:49:24;;;;;;;;;;;;;;;14.93;62.15;98996.88;4235741;33;20048;-78
2022/04/24 00:51:51;;;;;;;;;;;;;;;14.96;61.90;98991.62;4237696;33;20026;-75
2022/04/24 00:54:18;;;;;;;;;;;;;;;14.91;62.00;98988.25;4238200;33;19994;-79
2022/04/24 00:56:45;;;;;;;;;;;;;;;14.70;62.61;98999.81;4237391;33;19986;-75
2022/04/24 00:59:12;;;;;;;;;;;;;;;14.73;62.15;98995.41;4243711;33;20002;-76
2022/04/24 01:01:40;;;;;;;;;;;;;;;14.58;62.78;98995.63;4251601;33;20246;-74
2022/04/24 01:04:08;;;;;;;;;;;;;;;14.77;62.03;99007.53;4248256;33;20019;-74
2022/04/24 01:06:36;;;;;;;;;;;;;;;14.66;62.51;98999.00;4244755;33;20007;-75
2022/04/24 01:09:19;;;;;;;;;;;;;;;14.84;61.97;99000.50;4235461;33;20362;-75
2022/04/24 01:11:47;;;;;;;;;;;;;;;14.80;62.07;99002.25;4243671;33;20000;-73
2022/04/24 01:14:18;;;;;;;;;;;;;;;14.86;61.97;98999.56;4235889;33;20344;-79
2022/04/24 01:16:45;;;;;;;;;;;;;;;14.84;61.90;98993.53;4236577;33;20393;-77
2022/04/24 01:19:12;;;;;;;;;;;;;;;14.65;62.46;98986.87;4237242;33;19986;-79
2022/04/24 01:21:43;;;;;;;;;;;;;;;14.72;62.23;98982.44;4246476;33;19974;-78
2022/04/24 01:24:10;;;;;;;;;;;;;;;14.51;62.93;98988.78;4237442;33;20396;-77
2022/04/24 01:26:37;;;;;;;;;;;;;;;14.70;62.17;98985.03;4238595;33;19993;-80
2022/04/24 01:29:04;;;;;;;;;;;;;;;14.37;63.11;98988.94;4238793;33;20001;-79
2022/04/24 01:31:32;;;;;;;;;;;;;;;14.48;62.58;98983.59;4238246;33;20034;-76
2022/04/24 01:34:00;;;;;;;;;;;;;;;14.59;62.25;98976.53;4238778;33;19982;-74
2022/04/24 01:36:28;;;;;;;;;;;;;;;14.29;63.05;98981.22;4238381;33;19974;-78
2022/04/24 01:38:54;;;;;;;;;;;;;;;14.63;61.62;98968.66;4238022;33;19994;-77
2022/04/24 01:41:21;;;;;;;;;;;;;;;13.99;63.66;98977.25;4246486;33;19981;-75
2022/04/24 01:43:48;;;;;;;;;;;;;;;14.58;61.78;98962.66;4241092;33;19979;-76
2022/04/24 01:46:15;;;;;;;;;;;;;;;14.21;62.84;98970.06;4242077;33;20050;-79
2022/04/24 01:48:42;;;;;;;;;;;;;;;14.43;62.12;98963.69;4237312;33;20036;-78
2022/04/24 01:51:09;;;;;;;;;;;;;;;14.34;62.63;98966.41;4237302;33;20039;-76
2022/04/24 01:53:36;;;;;;;;;;;;;;;14.41;62.30;98965.44;4238549;33;19986;-77
2022/04/24 01:56:05;;;;;;;;;;;;;;;14.78;60.96;98961.50;4238506;33;19986;-76
2022/04/24 01:58:32;;;;;;;;;;;;;;;14.34;62.53;98971.63;4238758;33;20038;-77
2022/04/24 02:00:59;;;;;;;;;;;;;;;14.52;62.10;98969.69;4246204;33;19995;-74
2022/04/24 02:03:26;;;;;;;;;;;;;;;14.27;63.01;98963.94;4238588;33;20317;-78
2022/04/24 02:05:54;;;;;;;;;;;;;;;14.33;62.56;98964.69;4242592;33;19990;-75
2022/04/24 02:08:20;;;;;;;;;;;;;;;14.52;61.93;98974.91;4244754;33;19982;-76
2022/04/24 02:10:47;;;;;;;;;;;;;;;14.37;62.50;98970.72;4240247;33;19986;-75
2022/04/24 02:13:14;;;;;;;;;;;;;;;14.50;61.90;98961.00;4238350;33;20000;-77
2022/04/24 02:15:41;;;;;;;;;;;;;;;14.25;62.62;98969.12;4245273;33;19978;-80
2022/04/24 02:18:09;;;;;;;;;;;;;;;14.45;61.85;98968.84;4238351;33;20070;-78
2022/04/24 02:20:36;;;;;;;;;;;;;;;14.29;62.39;98963.00;4237222;33;19981;-79
2022/04/24 02:23:03;;;;;;;;;;;;;;;14.31;62.36;98963.84;4236668;33;20328;-77
2022/04/24 02:25:30;;;;;;;;;;;;;;;14.01;63.50;98966.81;4238212;33;20004;-78
2022/04/24 02:27:57;;;;;;;;;;;;;;;14.06;63.28;98967.66;4239238;33;19989;-75
2022/04/24 02:30:25;;;;;;;;;;;;;;;13.70;64.17;98962.00;4246311;33;20023;-78
2022/04/24 02:32:51;;;;;;;;;;;;;;;13.80;63.96;98958.41;4238200;33;19989;-79
2022/04/24 02:35:19;;;;;;;;;;;;;;;13.87;63.56;98944.44;4238743;33;19977;-76
2022/04/24 02:37:46;;;;;;;;;;;;;;;13.87;63.92;98957.44;4238586;33;20057;-76
2022/04/24 02:40:14;;;;;;;;;;;;;;;13.68;64.41;98950.72;4245989;33;19982;-74
2022/04/24 02:42:41;;;;;;;;;;;;;;;13.59;64.67;98958.63;4238397;33;20014;-75
2022/04/24 02:45:09;;;;;;;;;;;;;;;13.54;64.78;98955.22;4244404;33;20026;-78
2022/04/24 02:47:38;;;;;;;;;;;;;;;13.09;65.90;98972.94;4238490;33;20004;-79
2022/04/24 02:50:05;;;;;;;;;;;;;;;13.35;65.52;98955.41;4240561;33;19970;-75
2022/04/24 02:52:32;;;;;;;;;;;;;;;13.34;65.90;98955.44;4246173;33;19986;-79
2022/04/24 02:55:01;;;;;;;;;;;;;;;13.27;66.18;98952.00;4252703;33;19981;-77
2022/04/24 02:57:30;;;;;;;;;;;;;;;13.15;66.28;98957.28;4251745;33;20000;-78
2022/04/24 02:59:57;;;;;;;;;;;;;;;13.34;65.62;98953.69;4245783;33;20039;-76
2022/04/24 03:02:23;;;;;;;;;;;;;;;13.15;66.16;98957.28;4238287;33;20034;-79
2022/04/24 03:04:51;;;;;;;;;;;;;;;13.20;66.06;98947.69;4237868;33;19990;-78
2022/04/24 03:07:17;;;;;;;;;;;;;;;13.25;65.82;98951.16;4244152;33;20044;-76
2022/04/24 03:09:44;;;;;;;;;;;;;;;13.49;64.90;98945.72;4236878;33;20325;-78
2022/04/24 03:12:11;;;;;;;;;;;;;;;13.29;65.54;98939.88;4238413;33;19979;-79
2022/04/24 03:14:40;;;;;;;;;;;;;;;13.13;66.38;98943.44;4245736;33;20041;-74
2022/04/24 03:17:08;;;;;;;;;;;;;;;13.42;65.25;98931.06;4238055;33;19986;-78
2022/04/24 03:19:35;;;;;;;;;;;;;;;13.62;64.42;98928.25;4237807;33;20006;-81
2022/04/24 03:22:02;;;;;;;;;;;;;;;13.79;63.80;98925.47;4245511;33;20767;-77
2022/04/24 03:24:28;;;;;;;;;;;;;;;13.48;64.98;98925.81;4238464;33;19986;-77
2022/04/24 03:26:56;;;;;;;;;;;;;;;13.39;65.11;98925.87;4241416;33;20422;-76
2022/04/24 03:29:24;;;;;;;;;;;;;;;13.46;65.07;98927.56;4241976;33;20379;-74
2022/04/24 03:31:53;;;;;;;;;;;;;;;13.80;63.88;98921.97;4237975;33;19994;-76
2022/04/24 03:34:20;;;;;;;;;;;;;;;13.88;63.37;98907.16;4238375;33;19996;-74
2022/04/24 03:36:47;;;;;;;;;;;;;;;13.38;64.62;98908.59;4243911;33;19981;-79
2022/04/24 03:39:13;;;;;;;;;;;;;;;13.63;64.25;98908.31;4238845;33;19974;-78
2022/04/24 03:41:44;;;;;;;;;;;;;;;13.80;63.72;98911.59;4245226;33;19982;-77
2022/04/24 03:44:11;;;;;;;;;;;;;;;13.96;63.20;98905.31;4248742;33;20005;-77
2022/04/24 03:46:38;;;;;;;;;;;;;;;13.83;63.59;98902.87;4245000;33;20010;-77
2022/04/24 03:49:05;;;;;;;;;;;;;;;13.86;63.54;98911.50;4239799;33;19978;-80
2022/04/24 03:51:32;;;;;;;;;;;;;;;14.14;62.58;98905.97;4243418;33;19985;-73
2022/04/24 03:53:59;;;;;;;;;;;;;;;14.09;62.87;98910.34;4240682;33;19990;-75
2022/04/24 03:56:26;;;;;;;;;;;;;;;14.21;62.21;98912.81;4238469;33;19996;-76
2022/04/24 03:58:52;;;;;;;;;;;;;;;14.19;62.39;98914.56;3898931;34;10004188;-77
2022/04/24 04:01:19;;;;;;;;;;;;;;;14.18;62.26;98902.44;4196530;34;19983;-74
2022/04/24 04:03:46;;;;;;;;;;;;;;;14.09;62.48;98903.41;4196152;34;20011;-77
2022/04/24 04:06:13;;;;;;;;;;;;;;;13.87;63.44;98902.81;4195192;34;20012;-76
2022/04/24 04:08:40;;;;;;;;;;;;;;;14.01;63.19;98904.37;4197795;33;21271;-76
2022/04/24 04:11:07;;;;;;;;;;;;;;;14.13;63.00;98909.44;4222152;33;19974;-74
2022/04/24 04:13:35;;;;;;;;;;;;;;;14.19;62.45;98910.19;4222940;33;20002;-77
2022/04/24 04:16:02;;;;;;;;;;;;;;;14.24;62.50;98912.75;4223665;33;19991;-75
2022/04/24 04:18:29;;;;;;;;;;;;;;;14.01;63.03;98910.47;4223713;33;19982;-78
2022/04/24 04:20:56;;;;;;;;;;;;;;;14.17;62.59;98916.34;4222445;33;20194;-78
2022/04/24 04:23:23;;;;;;;;;;;;;;;14.39;62.18;98916.91;4222379;33;19978;-78
2022/04/24 04:25:50;;;;;;;;;;;;;;;14.53;61.52;98908.91;4223146;33;20000;-78
2022/04/24 04:28:17;;;;;;;;;;;;;;;14.37;61.88;98909.09;4223807;33;19997;-73
2022/04/24 04:30:43;;;;;;;;;;;;;;;14.39;62.08;98912.56;4223027;33;20035;-74
2022/04/24 04:33:10;;;;;;;;;;;;;;;14.41;61.74;98905.56;4223280;33;19990;-79
2022/04/24 04:35:38;;;;;;;;;;;;;;;14.32;62.20;98904.84;4223241;33;20008;-77
2022/04/24 04:38:05;;;;;;;;;;;;;;;14.36;61.81;98915.19;4208377;34;20143;-76
2022/04/24 04:40:32;;;;;;;;;;;;;;;14.34;62.14;98922.16;4208999;33;20296;-77
2022/04/24 04:42:58;;;;;;;;;;;;;;;14.38;62.03;98929.03;4210530;33;19989;-75
2022/04/24 04:45:25;;;;;;;;;;;;;;;14.64;61.02;98912.19;4223231;33;20008;-78
2022/04/24 04:47:53;;;;;;;;;;;;;;;14.65;60.87;98908.72;4223571;33;20120;-76
2022/04/24 04:50:19;;;;;;;;;;;;;;;14.65;60.67;98911.34;4222796;33;20380;-76
2022/04/24 04:52:46;;;;;;;;;;;;;;;14.54;61.05;98905.41;4222641;33;20342;-79
2022/04/24 04:55:13;;;;;;;;;;;;;;;14.26;61.99;98910.13;4223467;33;19995;-74
2022/04/24 04:57:40;;;;;;;;;;;;;;;14.32;62.20;98904.84;4222426;33;19986;-74
2022/04/24 05:00:07;;;;;;;;;;;;;;;14.59;61.10;98908.81;4223034;33;20074;-78
2022/04/24 05:02:35;;;;;;;;;;;;;;;14.58;61.62;98901.88;4222636;33;20353;-75
2022/04/24 05:05:04;;;;;;;;;;;;;;;14.54;61.88;98905.41;4221798;33;20091;-76
2022/04/24 05:07:31;;;;;;;;;;;;;;;14.69;61.49;98905.19;4222773;33;19990;-77
2022/04/24 05:09:58;;;;;;;;;;;;;;;14.72;60.91;98905.13;4196637;33;881193;-75
2022/04/24 05:12:27;;;;;;;;;;;;;;;14.76;61.18;98898.97;4071089;33;5086714;-75
2022/04/24 05:15:01;;;;;;;;;;;;;;;14.55;62.00;98891.50;4222089;33;20288;-73
2022/04/24 05:17:28;;;;;;;;;;;;;;;14.48;62.04;98885.50;4213216;33;20097;-75
2022/04/24 05:19:55;;;;;;;;;;;;;;;14.67;61.58;98887.84;4247294;33;20061;-72
2022/04/24 05:22:22;;;;;;;;;;;;;;;14.64;61.34;98892.25;4241674;33;20039;-73
2022/04/24 05:24:49;;;;;;;;;;;;;;;14.60;61.30;98892.31;4240040;33;20387;-75
2022/04/24 05:27:16;;;;;;;;;;;;;;;14.40;62.70;98887.38;4251296;33;20356;-79
2022/04/24 05:29:43;;;;;;;;;;;;;;;14.73;61.59;98896.44;4246319;33;20087;-74
2022/04/24 05:32:10;;;;;;;;;;;;;;;14.83;61.27;98887.56;4263739;33;20038;-75
2022/04/24 05:34:37;;;;;;;;;;;;;;;14.86;61.69;98882.31;4265317;33;19993;-74
2022/04/24 05:37:05;;;;;;;;;;;;;;;14.93;61.23;98887.41;4260316;33;20052;-75
2022/04/24 05:39:32;;;;;;;;;;;;;;;15.03;61.20;98886.41;4253852;33;20073;-77
2022/04/24 05:42:00;;;;;;;;;;;;;;;15.01;61.28;98890.78;4250441;33;20045;-80
2022/04/24 05:44:26;;;;;;;;;;;;;;;15.18;60.84;98899.16;4250778;33;19992;-74
2022/04/24 05:46:54;;;;;;;;;;;;;;;15.43;59.50;98903.94;4253131;33;20005;-77
2022/04/24 05:49:20;;;;;;;;;;;;;;;15.57;59.16;98907.12;4241871;33;20326;-75
2022/04/24 05:51:47;;;;;;;;;;;;;;;15.61;59.34;98903.59;4258369;33;19998;-75
2022/04/24 05:54:15;;;;;;;;;;;;;;;15.54;59.57;98904.59;4250531;33;19981;-79
2022/04/24 05:56:42;;;;;;;;;;;;;;;15.35;60.10;98897.09;4237693;33;20007;-76
2022/04/24 05:59:09;;;;;;;;;;;;;;;15.10;60.74;98895.84;4237071;33;19977;-79
2022/04/24 06:01:36;;;;;;;;;;;;;;;15.05;61.35;98892.44;4255732;33;19977;-75
2022/04/24 06:04:03;;;;;;;;;;;;;;;15.02;61.11;98902.91;4235772;33;20000;-78
2022/04/24 06:06:32;;;;;;;;;;;;;;;15.03;61.40;98899.44;4259752;33;20328;-75
2022/04/24 06:08:59;;;;;;;;;;;;;;;15.24;60.69;98901.66;4237428;33;20025;-80
2022/04/24 06:11:26;;;;;;;;;;;;;;;14.80;62.28;98898.03;4247211;33;20008;-77
2022/04/24 06:13:53;;;;;;;;;;;;;;;15.04;61.87;98896.78;4246742;33;19990;-81
2022/04/24 06:16:19;;;;;;;;;;;;;;;15.21;61.94;98898.22;4249189;33;19994;-81
2022/04/24 06:18:49;;;;;;;;;;;;;;;15.32;61.25;98897.16;4246456;33;19988;-82
2022/04/24 06:21:16;;;;;;;;;;;;;;;15.37;60.73;98898.81;4246862;33;20275;-81
2022/04/24 06:23:43;;;;;;;;;;;;;;;15.25;61.55;98900.78;4251301;33;20065;-77
2022/04/24 06:26:10;;;;;;;;;;;;;;;15.44;60.94;98895.19;4251465;33;20526;-74
2022/04/24 06:28:37;;;;;;;;;;;;;;;15.72;59.92;98890.34;4252221;33;20420;-75
2022/04/24 06:31:03;;;;;;;;;;;;;;;15.74;59.23;98894.66;4252201;33;19982;-75
2022/04/24 06:33:30;;;;;;;;;;;;;;;15.96;59.04;98892.47;4250413;33;19990;-74
2022/04/24 06:35:57;;;;;;;;;;;;;;;16.16;58.47;98897.25;4245916;33;20441;-74
2022/04/24 06:38:24;;;;;;;;;;;;;;;16.17;59.25;98896.34;4252529;33;20033;-74
2022/04/24 06:40:51;;;;;;;;;;;;;;;15.93;59.34;98883.84;4246702;33;19983;-74
2022/04/24 06:43:18;;;;;;;;;;;;;;;16.26;58.19;98892.69;4250016;33;19986;-79
2022/04/24 06:45:45;;;;;;;;;;;;;;;16.15;58.70;98886.84;4250451;33;19993;-81
2022/04/24 06:48:12;;;;;;;;;;;;;;;16.02;59.13;98879.28;4246399;33;19996;-77
2022/04/24 06:50:42;;;;;;;;;;;;;;;16.28;58.57;98876.09;4247377;33;20966;-76
2022/04/24 06:53:19;;;;;;;;;;;;;;;16.14;59.16;98872.91;4250081;33;19989;-76
2022/04/24 06:55:46;;;;;;;;;;;;;;;16.45;58.52;98873.09;4252292;33;19981;-75
2022/04/24 06:58:14;;;;;;;;;;;;;;;16.82;57.42;98871.41;4251882;33;20006;-83
2022/04/24 07:00:42;;;;;;;;;;;;;;;17.14;56.99;98871.44;4247492;33;20005;-80
2022/04/24 07:03:29;;;;;;;;;;;;;;;17.31;56.46;98859.66;4245126;33;20273;-77
2022/04/24 07:05:57;;;;;;;;;;;;;;;17.62;55.51;98864.91;4247009;33;20317;-78
2022/04/24 07:08:26;;;;;;;;;;;;;;;17.93;54.68;98864.87;4249561;33;19977;-82
2022/04/24 07:10:53;;;;;;;;;;;;;;;18.29;53.21;98868.19;4265641;33;19985;-80
2022/04/24 07:13:21;;;;;;;;;;;;;;;17.72;55.27;98855.03;4261846;33;20356;-76
2022/04/24 07:15:47;;;;;;;;;;;;;;;18.39;52.30;98863.50;4246389;33;20483;-78
2022/04/24 07:18:17;;;;;;;;;;;;;;;18.64;53.10;98867.97;4257605;33;19981;-79
2022/04/24 07:20:44;;;;;;;;;;;;;;;18.75;52.18;98858.00;4257217;33;19996;-79
2022/04/24 07:23:11;;;;;;;;;;;;;;;19.32;51.37;98851.69;4262476;33;20003;-79
2022/04/24 07:25:40;;;;;;;;;;;;;;;19.29;49.99;98851.78;4265227;33;19980;-76
2022/04/24 07:28:08;;;;;;;;;;;;;;;19.56;49.86;98849.09;4261992;33;19974;-77
2022/04/24 07:30:34;;;;;;;;;;;;;;;19.14;51.50;98844.44;4256209;33;19989;-77
2022/04/24 07:33:01;;;;;;;;;;;;;;;19.68;51.97;98839.03;4261133;33;20000;-74
2022/04/24 07:35:32;;;;;;;;;;;;;;;20.02;49.42;98842.16;4265365;33;20001;-75
2022/04/24 07:37:59;;;;;;;;;;;;;;;19.94;48.88;98843.31;4251840;33;20413;-73
2022/04/24 07:40:27;;;;;;;;;;;;;;;19.67;49.14;98839.94;4262214;33;19978;-74
2022/04/24 07:43:01;;;;;;;;;;;;;;;19.41;50.64;98851.38;4246672;33;20048;-74
2022/04/24 07:45:29;;;;;;;;;;;;;;;19.48;49.49;98839.72;4260679;33;20415;-73
2022/04/24 07:47:56;;;;;;;;;;;;;;;19.05;51.09;98854.38;4257392;33;20123;-73
2022/04/24 07:50:25;;;;;;;;;;;;;;;19.29;49.99;98851.78;4261342;33;20019;-74
2022/04/24 07:52:52;;;;;;;;;;;;;;;19.22;50.27;98852.94;4263244;33;20004;-74
2022/04/24 07:55:22;;;;;;;;;;;;;;;19.46;50.56;98849.44;4260011;33;19989;-74
2022/04/24 07:57:49;;;;;;;;;;;;;;;18.96;52.18;98856.44;4238521;33;20002;-73
2022/04/24 08:00:17;;;;;;;;;;;;;;;18.79;52.36;98851.75;4253122;33;20004;-75
2022/04/24 08:02:50;;;;;;;;;;;;;;;18.79;52.60;98851.75;4257536;33;20004;-74
2022/04/24 08:05:21;;;;;;;;;;;;;;;19.44;51.23;98832.88;4249563;33;19985;-74
2022/04/24 08:07:48;;;;;;;;;;;;;;;19.37;51.18;98823.53;4257605;33;20655;-73
2022/04/24 08:10:15;;;;;;;;;;;;;;;19.64;50.14;98831.31;4254599;33;19982;-72
2022/04/24 08:12:42;;;;;;;;;;;;;;;19.66;50.39;98829.50;4259014;33;19995;-72
2022/04/24 08:15:09;;;;;;;;;;;;;;;19.42;52.16;98831.22;4253474;33;20745;-74
2022/04/24 08:17:37;;;;;;;;;;;;;;;19.81;49.20;98834.16;4259767;33;20029;-74
2022/04/24 08:20:05;;;;;;;;;;;;;;;19.82;49.26;98820.16;4260435;33;20042;-75
2022/04/24 08:22:48;;;;;;;;;;;;;;;19.67;49.38;98818.94;4238568;33;20005;-75
2022/04/24 08:25:18;;;;;;;;;;;;;;;20.24;48.71;98810.66;4251410;33;20388;-77
2022/04/24 08:27:46;;;;;;;;;;;;;;;20.29;48.72;98793.75;4252251;33;20013;-74
2022/04/24 08:30:13;;;;;;;;;;;;;;;20.52;48.13;98799.91;4257230;33;19989;-74
2022/04/24 08:32:41;;;;;;;;;;;;;;;20.20;48.05;98799.41;4237151;33;20007;-76
2022/04/24 08:35:09;;;;;;;;;;;;;;;20.48;46.14;98798.28;4250247;33;20030;-77
2022/04/24 08:37:36;;;;;;;;;;;;;;;20.42;47.29;98802.88;4252472;33;20638;-75
2022/04/24 08:40:04;;;;;;;;;;;;;;;20.22;47.07;98802.81;4256572;33;19998;-75
2022/04/24 08:42:32;;;;;;;;;;;;;;;20.62;46.93;98785.47;4250233;33;20004;-74
2022/04/24 08:44:59;;;;;;;;;;;;;;;20.94;46.85;98785.88;4240737;33;20056;-73
2022/04/24 08:47:26;;;;;;;;;;;;;;;20.59;47.25;98781.19;4254061;33;19991;-74
2022/04/24 08:49:54;;;;;;;;;;;;;;;20.83;47.02;98774.00;4238163;33;20001;-74
2022/04/24 08:52:21;;;;;;;;;;;;;;;20.50;48.91;98786.78;4252246;33;20048;-73
2022/04/24 08:54:48;;;;;;;;;;;;;;;20.57;48.19;98771.63;4258330;33;19996;-72
2022/04/24 08:57:16;;;;;;;;;;;;;;;20.90;47.08;98762.31;4255228;33;19973;-75
2022/04/24 08:59:42;;;;;;;;;;;;;;;21.03;46.67;98760.00;4255487;33;19986;-73
2022/04/24 09:02:23;;;;;;;;;;;;;;;21.10;46.21;98765.87;4252026;33;20021;-73
2022/04/24 09:04:52;;;;;;;;;;;;;;;21.13;45.93;98765.72;4247987;33;19989;-73
2022/04/24 09:07:20;;;;;;;;;;;;;;;21.49;45.93;98762.38;4257863;33;20033;-75
2022/04/24 09:09:48;;;;;;;;;;;;;;;21.74;42.72;98757.69;4241450;33;19994;-74
2022/04/24 09:12:25;;;;;;;;;;;;;;;21.56;42.64;98758.53;4253241;33;19994;-74
2022/04/24 09:14:55;;;;;;;;;;;;;;;21.23;44.00;98739.84;4256815;33;19985;-74
2022/04/24 09:17:25;;;;;;;;;;;;;;;20.82;43.52;98772.31;4257140;33;20660;-73
2022/04/24 09:19:53;;;;;;;;;;;;;;;20.47;42.85;98744.00;4239679;33;19989;-75
2022/04/24 09:22:20;;;;;;;;;;;;;;;20.41;44.55;98753.84;4251412;33;19991;-74
2022/04/24 09:24:52;;;;;;;;;;;;;;;20.50;42.80;98754.38;4259423;33;19989;-73
2022/04/24 09:27:24;;;;;;;;;;;;;;;20.29;43.35;98769.25;4251103;33;19977;-73
2022/04/24 09:29:52;;;;;;;;;;;;;;;19.89;43.04;98755.94;4255272;33;20043;-74
2022/04/24 09:32:20;;;;;;;;;;;;;;;20.44;42.23;98761.59;4238336;33;19985;-72
2022/04/24 09:34:47;;;;;;;;;;;;;;;20.98;41.82;98740.94;4250925;33;19997;-74
2022/04/24 09:37:14;;;;;;;;;;;;;;;21.15;42.11;98740.19;4258762;33;19973;-74
2022/04/24 09:39:42;;;;;;;;;;;;;;;21.47;40.89;98753.69;4253334;33;19985;-73
2022/04/24 09:42:09;;;;;;;;;;;;;;;20.57;42.25;98761.13;4258577;33;19989;-73
2022/04/24 09:44:37;;;;;;;;;;;;;;;20.97;42.78;98743.66;4254777;33;20049;-73
2022/04/24 09:47:25;;;;;;;;;;;;;;;20.34;44.24;98747.12;4254608;33;20314;-75
2022/04/24 09:49:52;;;;;;;;;;;;;;;20.30;42.83;98758.69;4255910;33;20004;-73
2022/04/24 09:52:19;;;;;;;;;;;;;;;20.64;40.06;98759.94;4237181;33;19994;-74
2022/04/24 09:54:51;;;;;;;;;;;;;;;20.06;40.89;98759.69;4241405;33;20276;-72
2022/04/24 09:57:18;;;;;;;;;;;;;;;20.29;40.31;98762.22;4225605;33;20037;-72
2022/04/24 09:59:46;;;;;;;;;;;;;;;20.12;40.57;98759.44;3931813;33;10004429;-74
2022/04/24 10:02:17;;;;;;;;;;;;;;;20.16;41.03;98766.28;4211391;33;19982;-74
2022/04/24 10:04:46;;;;;;;;;;;;;;;20.49;40.18;98774.56;4224825;33;20369;-75
2022/04/24 10:07:13;;;;;;;;;;;;;;;20.49;39.96;98778.97;4223194;33;19993;-73
2022/04/24 10:09:41;;;;;;;;;;;;;;;20.20;39.55;98778.38;4233983;33;20795;-73
2022/04/24 10:12:10;;;;;;;;;;;;;;;20.03;40.34;98786.91;4253026;33;19986;-73
2022/04/24 10:14:39;;;;;;;;;;;;;;;19.55;41.60;98790.47;4240011;33;20058;-72
2022/04/24 10:17:12;;;;;;;;;;;;;;;19.31;42.50;98787.00;4239426;33;19981;-72
2022/04/24 10:19:43;;;;;;;;;;;;;;;19.65;41.43;98801.53;4259217;33;19985;-73
2022/04/24 10:22:29;;;;;;;;;;;;;;;19.56;42.11;98800.09;4253383;33;20030;-74
2022/04/24 10:24:58;;;;;;;;;;;;;;;19.79;42.42;98799.25;4266825;33;20435;-73
2022/04/24 10:27:35;;;;;;;;;;;;;;;19.45;42.49;98805.72;4262225;33;20049;-72
2022/04/24 10:30:02;;;;;;;;;;;;;;;19.39;43.80;98790.19;4252874;33;19969;-72
2022/04/24 10:32:32;;;;;;;;;;;;;;;19.51;43.43;98802.88;4252772;33;20076;-73
2022/04/24 10:34:59;;;;;;;;;;;;;;;19.51;43.33;98812.50;4243072;33;20060;-72
2022/04/24 10:37:31;;;;;;;;;;;;;;;19.71;43.34;98801.28;4259441;33;20085;-73
2022/04/24 10:39:58;;;;;;;;;;;;;;;18.93;44.96;98807.59;4248412;33;20109;-73
2022/04/24 10:42:32;;;;;;;;;;;;;;;19.36;43.96;98799.94;4238414;33;19990;-75
2022/04/24 10:45:09;;;;;;;;;;;;;;;18.71;44.98;98790.84;4244109;33;20017;-73
2022/04/24 10:47:43;;;;;;;;;;;;;;;18.71;45.74;98789.06;4239994;33;19986;-72
2022/04/24 10:50:10;;;;;;;;;;;;;;;19.18;44.31;98785.75;4239698;33;19974;-72
2022/04/24 11:43:10;;;;;;;;;;;;;;;19.45;46.59;98795.22;4461325;31;871557;-82
2022/04/24 11:51:15;;;;;;;;;;;;;;;18.70;47.95;98795.22;4452092;32;21271;-82
2022/04/24 11:54:02;;;;;;;;;;;;;;;18.92;47.44;98782.28;4433615;32;20854;-82
2022/04/24 11:56:32;;;;;;;;;;;;;;;19.27;47.06;98774.87;4425753;32;19977;-82
2022/04/24 11:59:14;;;;;;;;;;;;;;;19.63;47.00;98761.34;4425662;32;20053;-81
2022/04/24 12:01:44;;;;;;;;;;;;;;;20.02;46.29;98768.59;4425526;32;19971;-80
2022/04/24 12:04:16;;;;;;;;;;;;;;;20.15;45.46;98764.56;4426000;32;19986;-82
2022/04/24 12:06:43;;;;;;;;;;;;;;;20.39;45.00;98768.84;4427053;32;19996;-81
2022/04/24 12:09:10;;;;;;;;;;;;;;;20.03;45.43;98775.56;4444247;32;20050;-82
2022/04/24 12:11:37;;;;;;;;;;;;;;;19.85;46.66;98762.25;4424689;32;20290;-83
2022/04/24 12:14:06;;;;;;;;;;;;;;;20.00;45.42;98738.91;4425142;32;20015;-84
2022/04/24 12:16:33;;;;;;;;;;;;;;;20.00;46.04;98749.41;4425640;32;20010;-84
2022/04/24 12:19:04;;;;;;;;;;;;;;;20.32;47.83;98741.06;4416786;32;20005;-85
2022/04/24 12:21:32;;;;;;;;;;;;;;;20.78;46.92;98733.91;4439576;32;20001;-86
2022/04/24 12:23:59;;;;;;;;;;;;;;;21.50;44.30;98737.75;4439363;32;19998;-85
2022/04/24 12:26:26;;;;;;;;;;;;;;;21.21;45.46;98747.81;4438755;32;19981;-85
2022/04/24 12:28:53;;;;;;;;;;;;;;;20.99;48.15;98733.88;4439582;32;20049;-82
2022/04/24 12:31:20;;;;;;;;;;;;;;;21.48;43.81;98747.53;4439033;32;20036;-86
2022/04/24 12:33:48;;;;;;;;;;;;;;;21.42;44.48;98756.56;4438638;32;19993;-85
2022/04/24 12:36:15;;;;;;;;;;;;;;;20.78;44.41;98754.97;4438384;32;20361;-83
2022/04/24 12:38:56;;;;;;;;;;;;;;;20.93;44.34;98747.31;4428037;32;20821;-84
2022/04/24 12:41:28;;;;;;;;;;;;;;;20.37;45.38;98744.37;4426005;32;19985;-84
2022/04/24 12:43:59;;;;;;;;;;;;;;;20.54;43.59;98737.59;4402099;32;20008;-85
2022/04/24 12:46:26;;;;;;;;;;;;;;;20.55;44.32;98723.50;4409822;32;20052;-85
2022/04/24 12:48:53;;;;;;;;;;;;;;;20.25;45.48;98718.59;4410896;32;19985;-85
2022/04/24 12:51:21;;;;;;;;;;;;;;;20.25;45.75;98723.84;4381607;32;20056;-84
2022/04/24 12:53:48;;;;;;;;;;;;;;;20.14;45.42;98732.19;4408595;32;20065;-85
2022/04/24 12:56:17;;;;;;;;;;;;;;;20.29;45.43;98735.94;4408161;32;19993;-85
2022/04/24 12:58:43;;;;;;;;;;;;;;;20.31;45.50;98734.13;4418864;32;19982;-82
2022/04/24 13:01:14;;;;;;;;;;;;;;;20.07;45.81;98735.09;4395255;32;19975;-84
2022/04/24 13:03:41;;;;;;;;;;;;;;;19.72;46.52;98734.75;4395185;32;20016;-83
2022/04/24 13:06:11;;;;;;;;;;;;;;;19.59;46.62;98733.47;4410021;32;19977;-83
2022/04/24 13:08:39;;;;;;;;;;;;;;;20.15;43.90;98738.28;4410234;32;20049;-84
2022/04/24 13:11:06;;;;;;;;;;;;;;;19.94;45.11;98735.63;4403708;32;20040;-81
2022/04/24 13:13:33;;;;;;;;;;;;;;;19.82;46.41;98728.22;4410500;32;19992;-86
2022/04/24 13:18:47;;;;;;;;;;;;;;;19.36;47.87;98722.06;4405023;32;19993;-85
2022/04/24 13:21:14;;;;;;;;;;;;;;;19.75;47.85;98724.12;4410768;32;19974;-83
2022/04/24 13:23:40;;;;;;;;;;;;;;;20.10;48.26;98713.97;4402824;32;20001;-82
2022/04/24 13:26:07;;;;;;;;;;;;;;;19.63;49.99;98724.56;4402680;32;19993;-83
2022/04/24 13:28:34;;;;;;;;;;;;;;;19.05;49.90;98720.59;4401160;32;19996;-83
2022/04/24 13:31:02;;;;;;;;;;;;;;;18.90;51.10;98723.78;4409639;32;19989;-81
2022/04/24 13:33:29;;;;;;;;;;;;;;;19.44;50.37;98727.91;4407883;32;20472;-83
2022/04/24 13:35:57;;;;;;;;;;;;;;;18.95;54.38;98727.09;4409823;32;20053;-83
2022/04/24 13:38:24;;;;;;;;;;;;;;;19.61;53.02;98723.78;4408705;32;20065;-87
2022/04/24 13:40:54;;;;;;;;;;;;;;;18.20;55.42;98726.16;4405106;32;20002;-86
2022/04/24 13:43:22;;;;;;;;;;;;;;;18.55;55.41;98733.69;4399886;32;19993;-88
2022/04/24 13:45:54;;;;;;;;;;;;;;;18.90;56.15;98702.78;4403844;32;19990;-87
2022/04/24 13:48:26;;;;;;;;;;;;;;;18.20;54.62;98679.84;4403471;32;20002;-85